createdAt,value
2022-10-31T00:00:32.996Z,0.32
2022-10-31T00:03:00.529Z,0.43
2022-10-31T00:05:28.015Z,0.40
2022-10-31T00:07:55.266Z,0.90
2022-10-31T00:10:22.514Z,0.60
2022-10-31T00:12:49.721Z,0.40
2022-10-31T00:15:17.011Z,0.88
2022-10-31T00:17:44.405Z,0.40
2022-10-31T00:20:11.661Z,0.98
2022-10-31T00:22:39.082Z,0.82
2022-10-31T00:25:06.339Z,0.68
2022-10-31T00:27:33.641Z,0.82
2022-10-31T00:30:00.974Z,0.88
2022-10-31T00:32:31.191Z,0.55
2022-10-31T00:34:58.423Z,0.93
2022-10-31T00:37:25.616Z,0.50
2022-10-31T00:39:52.851Z,1.52
2022-10-31T00:42:20.096Z,0.80
2022-10-31T00:44:47.314Z,0.55
2022-10-31T00:47:14.616Z,0.50
2022-10-31T00:49:41.832Z,0.38
2022-10-31T00:52:09.030Z,0.55
2022-10-31T00:54:36.281Z,0.70
2022-10-31T00:57:03.476Z,0.50
2022-10-31T00:59:30.696Z,0.73
2022-10-31T01:01:58.118Z,1.67
2022-10-31T01:04:25.661Z,0.68
2022-10-31T01:06:52.908Z,0.50
2022-10-31T01:09:20.263Z,0.82
2022-10-31T01:11:47.453Z,1.23
2022-10-31T01:14:14.622Z,0.50
2022-10-31T01:16:41.838Z,1.40
2022-10-31T01:19:09.044Z,0.90
2022-10-31T01:21:36.251Z,1.98
2022-10-31T01:24:03.575Z,0.70
2022-10-31T01:26:31.926Z,0.73
2022-10-31T01:29:03.299Z,0.40
2022-10-31T01:31:32.602Z,0.95
2022-10-31T01:33:59.960Z,1.10
2022-10-31T01:36:28.487Z,1.55
2022-10-31T01:38:57.407Z,0.65
2022-10-31T01:41:25.783Z,0.80
2022-10-31T01:43:52.945Z,0.65
2022-10-31T01:46:28.436Z,1.00
2022-10-31T01:48:57.021Z,0.57
2022-10-31T01:51:26.855Z,0.70
2022-10-31T01:53:55.916Z,0.90
2022-10-31T01:56:23.569Z,0.80
2022-10-31T01:58:50.879Z,1.00
2022-10-31T02:01:18.775Z,0.75
2022-10-31T02:03:46.936Z,0.80
2022-10-31T02:06:28.329Z,0.75
2022-10-31T02:08:56.579Z,0.77
2022-10-31T02:11:24.388Z,2.05
2022-10-31T02:13:51.848Z,1.63
2022-10-31T02:16:19.094Z,0.68
2022-10-31T02:18:46.311Z,0.70
2022-10-31T02:21:28.850Z,0.65
2022-10-31T02:24:18.867Z,1.58
2022-10-31T02:26:52.297Z,0.93
2022-10-31T02:29:37.771Z,0.77
2022-10-31T02:32:18.784Z,2.05
2022-10-31T02:34:54.480Z,1.08
2022-10-31T02:37:28.140Z,0.70
2022-10-31T02:40:18.579Z,0.80
2022-10-31T02:42:55.150Z,0.75
2022-10-31T02:45:27.841Z,0.50
2022-10-31T02:47:57.796Z,0.73
2022-10-31T02:50:30.620Z,0.82
2022-10-31T02:52:57.907Z,1.40
2022-10-31T02:55:28.109Z,0.70
2022-10-31T02:57:58.967Z,0.63
2022-10-31T03:00:26.833Z,0.65
2022-10-31T03:02:57.274Z,2.03
2022-10-31T03:05:42.809Z,1.10
2022-10-31T03:08:29.098Z,1.13
2022-10-31T03:11:00.614Z,1.65
2022-10-31T03:13:33.990Z,1.55
2022-10-31T03:16:12.555Z,4.60
2022-10-31T03:18:41.747Z,3.95
2022-10-31T03:21:15.302Z,2.90
2022-10-31T03:23:43.843Z,0.80
2022-10-31T03:26:13.264Z,1.75
2022-10-31T03:28:45.364Z,1.20
2022-10-31T03:31:14.318Z,1.27
2022-10-31T03:33:42.610Z,0.93
2022-10-31T03:36:10.825Z,0.65
2022-10-31T03:38:38.746Z,0.98
2022-10-31T03:41:07.294Z,2.75
2022-10-31T03:43:37.807Z,1.25
2022-10-31T03:46:05.365Z,1.40
2022-10-31T03:48:32.584Z,1.70
2022-10-31T03:51:03.706Z,1.88
2022-10-31T03:53:40.964Z,1.77
2022-10-31T03:56:19.720Z,1.80
2022-10-31T03:58:54.066Z,1.60
2022-10-31T04:01:22.483Z,1.48
2022-10-31T04:03:49.935Z,2.05
2022-10-31T04:06:18.725Z,1.00
2022-10-31T04:08:51.650Z,0.52
2022-10-31T04:11:20.139Z,0.70
2022-10-31T04:13:48.302Z,0.52
2022-10-31T04:16:17.293Z,0.50
2022-10-31T04:18:45.098Z,0.40
2022-10-31T04:21:12.400Z,0.47
2022-10-31T04:23:39.637Z,0.45
2022-10-31T04:26:07.070Z,0.30
2022-10-31T04:28:34.785Z,1.48
2022-10-31T04:31:02.147Z,0.50
2022-10-31T04:33:29.343Z,0.55
2022-10-31T04:35:56.570Z,1.00
2022-10-31T04:38:23.755Z,0.57
2022-10-31T04:40:50.979Z,0.43
2022-10-31T04:45:50.555Z,0.40
2022-10-31T04:48:17.832Z,0.40
2022-10-31T04:50:45.092Z,0.40
2022-10-31T04:53:12.280Z,0.38
2022-10-31T04:55:39.496Z,0.40
2022-10-31T04:58:06.848Z,0.30
2022-10-31T05:00:34.190Z,0.30
2022-10-31T05:03:02.055Z,0.40
2022-10-31T05:05:31.034Z,0.40
2022-10-31T05:07:58.272Z,0.55
2022-10-31T05:10:26.910Z,0.60
2022-10-31T05:12:55.607Z,0.40
2022-10-31T05:15:23.780Z,0.60
2022-10-31T05:17:51.339Z,0.35
2022-10-31T05:20:19.454Z,0.82
2022-10-31T05:22:49.210Z,0.30
2022-10-31T05:25:16.911Z,0.40
2022-10-31T05:27:45.147Z,0.60
2022-10-31T05:30:13.528Z,0.43
2022-10-31T05:32:41.368Z,0.55
2022-10-31T05:35:09.419Z,0.45
2022-10-31T05:37:37.129Z,0.50
2022-10-31T05:40:08.099Z,0.40
2022-10-31T05:42:36.108Z,0.50
2022-10-31T05:45:03.457Z,0.40
2022-10-31T05:47:30.648Z,0.30
2022-10-31T05:49:58.155Z,0.47
2022-10-31T05:52:25.353Z,0.43
2022-10-31T05:54:52.577Z,0.35
2022-10-31T05:57:19.796Z,0.47
2022-10-31T05:59:49.931Z,0.40
2022-10-31T06:02:21.840Z,0.20
2022-10-31T06:04:49.167Z,0.60
2022-10-31T06:07:16.482Z,0.50
2022-10-31T06:09:43.846Z,0.20
2022-10-31T06:12:11.055Z,0.63
2022-10-31T06:14:38.263Z,0.38
2022-10-31T06:17:05.469Z,0.55
2022-10-31T06:19:32.711Z,0.90
2022-10-31T06:21:59.918Z,0.82
2022-10-31T06:24:27.159Z,1.42
2022-10-31T06:26:54.547Z,0.60
2022-10-31T06:29:21.843Z,1.17
2022-10-31T06:31:49.068Z,0.65
2022-10-31T06:34:16.266Z,0.50
2022-10-31T06:36:43.437Z,0.50
2022-10-31T06:39:10.698Z,0.40
2022-10-31T06:41:38.008Z,0.55
2022-10-31T06:44:08.127Z,0.40
2022-10-31T06:46:36.253Z,0.63
2022-10-31T06:49:03.499Z,0.32
2022-10-31T06:51:30.722Z,0.43
2022-10-31T06:53:57.982Z,0.40
2022-10-31T06:56:25.237Z,0.30
2022-10-31T06:58:52.462Z,0.40
2022-10-31T07:01:19.809Z,0.30
2022-10-31T07:03:47.082Z,0.40
2022-10-31T07:06:14.414Z,0.47
2022-10-31T07:08:41.716Z,0.40
2022-10-31T07:11:08.999Z,1.42
2022-10-31T07:13:36.210Z,0.40
2022-10-31T07:16:04.791Z,0.80
2022-10-31T07:18:32.017Z,0.65
2022-10-31T07:20:59.384Z,0.38
2022-10-31T07:23:26.601Z,0.40
2022-10-31T07:25:57.933Z,0.40
2022-10-31T07:28:25.455Z,0.35
2022-10-31T07:30:56.804Z,0.50
2022-10-31T07:33:24.537Z,0.55
2022-10-31T07:35:51.759Z,0.30
2022-10-31T07:38:19.044Z,0.40
2022-10-31T07:40:51.003Z,1.00
2022-10-31T07:43:18.385Z,0.40
2022-10-31T07:45:45.694Z,0.63
2022-10-31T07:48:12.908Z,0.60
2022-10-31T07:50:40.978Z,0.40
2022-10-31T07:53:09.463Z,0.40
2022-10-31T07:55:36.942Z,0.45
2022-10-31T07:58:05.276Z,0.40
2022-10-31T08:00:33.433Z,0.30
2022-10-31T08:03:01.882Z,0.40
2022-10-31T08:05:29.554Z,0.50
2022-10-31T08:07:57.480Z,0.85
2022-10-31T08:10:28.908Z,0.40
2022-10-31T08:13:03.764Z,0.43
2022-10-31T08:15:31.210Z,1.17
2022-10-31T08:17:58.766Z,0.75
2022-10-31T08:20:26.348Z,1.30
2022-10-31T08:23:00.933Z,1.65
2022-10-31T08:25:30.978Z,2.10
2022-10-31T08:28:01.464Z,2.45
2022-10-31T08:30:31.019Z,2.42
2022-10-31T08:33:02.063Z,0.70
2022-10-31T08:35:29.391Z,1.25
2022-10-31T08:37:57.206Z,0.73
2022-10-31T08:40:25.029Z,1.98
2022-10-31T08:42:59.081Z,1.75
2022-10-31T08:45:26.514Z,1.98
2022-10-31T08:47:53.763Z,1.73
2022-10-31T08:50:21.178Z,2.88
2022-10-31T08:53:04.028Z,2.25
2022-10-31T08:55:32.110Z,2.40
2022-10-31T08:58:00.270Z,2.13
2022-10-31T09:00:27.829Z,1.90
2022-10-31T09:03:01.708Z,3.38
2022-10-31T09:05:29.281Z,2.15
2022-10-31T09:08:00.809Z,3.60
2022-10-31T09:10:29.088Z,2.28
2022-10-31T09:13:07.275Z,1.83
2022-10-31T09:15:39.311Z,1.58
2022-10-31T09:18:10.003Z,1.20
2022-10-31T09:20:38.233Z,1.08
2022-10-31T09:23:07.036Z,1.67
2022-10-31T09:25:35.604Z,2.65
2022-10-31T09:28:04.334Z,2.90
2022-10-31T09:30:33.398Z,2.70
2022-10-31T09:33:01.702Z,2.22
2022-10-31T09:35:29.299Z,3.75
2022-10-31T09:38:00.997Z,2.10
2022-10-31T09:40:38.912Z,3.08
2022-10-31T09:43:09.091Z,3.67
2022-10-31T09:45:54.394Z,2.20
2022-10-31T09:48:46.467Z,3.00
2022-10-31T09:51:27.200Z,4.78
2022-10-31T09:54:03.256Z,6.40
2022-10-31T09:56:32.069Z,3.15
2022-10-31T09:59:01.768Z,2.53
2022-10-31T10:01:46.776Z,1.55
2022-10-31T10:04:32.463Z,1.90
2022-10-31T10:07:00.374Z,3.15
2022-10-31T10:09:28.607Z,2.55
2022-10-31T10:12:16.043Z,2.75
2022-10-31T10:14:49.391Z,2.05
2022-10-31T10:17:37.277Z,2.58
2022-10-31T10:20:34.413Z,2.70
2022-10-31T10:23:10.844Z,1.60
2022-10-31T10:25:41.958Z,3.53
2022-10-31T10:28:27.139Z,3.78
2022-10-31T10:31:20.491Z,3.30
2022-10-31T10:33:53.770Z,3.17
2022-10-31T10:36:28.299Z,3.10
2022-10-31T10:38:55.527Z,3.20
2022-10-31T10:41:24.273Z,2.03
2022-10-31T10:43:52.260Z,3.30
2022-10-31T10:46:39.967Z,2.63
2022-10-31T10:49:25.195Z,1.67
2022-10-31T10:52:39.694Z,4.57
2022-10-31T10:55:15.580Z,3.92
2022-10-31T10:57:58.392Z,1.95
2022-10-31T11:00:38.281Z,2.22
2022-10-31T11:03:06.628Z,1.80
2022-10-31T11:05:38.807Z,1.83
2022-10-31T11:08:06.610Z,4.07
2022-10-31T11:10:34.403Z,3.92
2022-10-31T11:13:04.629Z,4.13
2022-10-31T11:15:33.483Z,2.78
2022-10-31T11:18:01.235Z,2.10
2022-10-31T11:20:33.155Z,2.55
2022-10-31T11:23:06.537Z,2.10
2022-10-31T11:25:34.087Z,1.60
2022-10-31T11:28:05.675Z,2.13
2022-10-31T11:30:37.763Z,2.05
2022-10-31T11:33:05.559Z,1.73
2022-10-31T11:35:32.849Z,3.70
2022-10-31T11:38:01.064Z,3.50
2022-10-31T11:40:28.965Z,4.78
2022-10-31T11:42:59.651Z,5.03
2022-10-31T11:45:34.796Z,3.95
2022-10-31T11:48:03.463Z,2.78
2022-10-31T11:50:37.762Z,2.47
2022-10-31T11:53:05.618Z,1.83
2022-10-31T11:55:37.498Z,2.00
2022-10-31T11:58:05.293Z,1.73
2022-10-31T12:00:34.036Z,2.13
2022-10-31T12:03:20.390Z,2.17
2022-10-31T12:05:49.083Z,2.65
2022-10-31T12:08:16.416Z,3.58
2022-10-31T12:11:02.337Z,3.70
2022-10-31T12:13:50.503Z,2.45
2022-10-31T12:16:28.860Z,2.55
2022-10-31T12:19:08.264Z,1.98
2022-10-31T12:21:42.158Z,1.88
2022-10-31T12:24:14.398Z,1.33
2022-10-31T12:26:50.875Z,1.30
2022-10-31T12:29:24.361Z,1.83
2022-10-31T12:32:04.351Z,2.88
2022-10-31T12:34:31.735Z,2.08
2022-10-31T12:37:14.005Z,2.92
2022-10-31T12:39:59.789Z,4.78
2022-10-31T12:42:45.885Z,3.97
2022-10-31T12:45:32.198Z,4.30
2022-10-31T12:48:17.753Z,4.40
2022-10-31T12:50:44.986Z,4.85
2022-10-31T12:55:52.360Z,2.40
2022-10-31T12:58:25.859Z,2.75
2022-10-31T13:00:58.807Z,2.78
2022-10-31T13:03:34.734Z,2.45
2022-10-31T13:06:06.878Z,3.00
2022-10-31T13:08:41.581Z,3.58
2022-10-31T13:11:15.752Z,3.88
2022-10-31T13:14:01.717Z,3.25
2022-10-31T13:16:37.268Z,3.72
2022-10-31T13:19:08.090Z,2.65
2022-10-31T13:21:38.112Z,2.47
2022-10-31T13:24:06.672Z,2.22
2022-10-31T13:26:33.893Z,2.65
2022-10-31T13:29:20.668Z,3.20
2022-10-31T13:31:47.971Z,4.75
2022-10-31T13:34:25.295Z,5.82
2022-10-31T13:36:53.989Z,5.53
2022-10-31T13:39:26.919Z,8.63
2022-10-31T13:42:03.332Z,3.72
2022-10-31T13:44:35.857Z,3.80
2022-10-31T13:47:05.499Z,2.85
2022-10-31T13:49:32.707Z,2.88
2022-10-31T13:52:14.993Z,2.70
2022-10-31T13:54:42.383Z,2.42
2022-10-31T13:57:34.074Z,3.45
2022-10-31T14:00:03.722Z,2.95
2022-10-31T14:02:32.373Z,2.65
2022-10-31T14:05:06.144Z,2.63
2022-10-31T14:07:34.218Z,5.35
2022-10-31T14:10:06.627Z,5.18
2022-10-31T14:12:36.598Z,4.50
2022-10-31T14:15:14.242Z,3.30
2022-10-31T14:17:47.901Z,3.90
2022-10-31T14:20:15.136Z,2.47
2022-10-31T14:22:43.170Z,3.47
2022-10-31T14:25:29.498Z,2.42
2022-10-31T14:27:57.497Z,2.35
2022-10-31T14:30:26.475Z,1.63
2022-10-31T14:32:59.843Z,1.20
2022-10-31T14:35:29.527Z,2.28
2022-10-31T14:38:08.873Z,2.53
2022-10-31T14:43:16.803Z,1.48
2022-10-31T14:45:47.189Z,1.63
2022-10-31T14:48:25.601Z,2.30
2022-10-31T14:50:54.597Z,1.95
2022-10-31T14:53:28.213Z,1.20
2022-10-31T14:55:56.389Z,1.95
2022-10-31T14:58:41.794Z,2.78
2022-10-31T15:01:09.633Z,1.65
2022-10-31T15:03:44.498Z,1.80
2022-10-31T15:06:21.669Z,1.30
2022-10-31T15:08:50.677Z,1.98
2022-10-31T15:11:21.799Z,0.73
2022-10-31T15:13:53.130Z,2.28
2022-10-31T15:16:26.077Z,4.13
2022-10-31T15:18:55.305Z,3.10
2022-10-31T15:21:23.891Z,3.67
2022-10-31T15:23:52.549Z,2.25
2022-10-31T15:26:21.416Z,7.80
2022-10-31T15:29:00.103Z,5.57
2022-10-31T15:31:27.536Z,5.35
2022-10-31T15:33:55.752Z,6.28
2022-10-31T15:36:27.642Z,5.50
2022-10-31T15:38:59.631Z,8.27
2022-10-31T15:41:30.876Z,5.47
2022-10-31T15:44:01.659Z,4.22
2022-10-31T15:46:29.010Z,4.57
2022-10-31T15:48:56.480Z,3.38
2022-10-31T15:51:27.929Z,3.20
2022-10-31T15:53:56.410Z,3.05
2022-10-31T15:56:24.655Z,2.08
2022-10-31T15:58:53.412Z,2.55
2022-10-31T16:01:22.833Z,2.47
2022-10-31T16:04:08.658Z,2.00
2022-10-31T16:06:36.515Z,1.52
2022-10-31T16:09:04.871Z,1.92
2022-10-31T16:11:36.655Z,1.83
2022-10-31T16:14:03.955Z,2.05
2022-10-31T16:16:35.714Z,1.35
2022-10-31T16:19:05.298Z,2.10
2022-10-31T16:21:35.121Z,3.47
2022-10-31T16:24:07.321Z,2.40
2022-10-31T16:26:34.928Z,2.45
2022-10-31T16:29:05.565Z,2.70
2022-10-31T16:31:41.152Z,2.40
2022-10-31T16:34:26.326Z,3.40
2022-10-31T16:36:53.661Z,4.05
2022-10-31T16:39:20.914Z,3.90
2022-10-31T16:41:49.077Z,5.43
2022-10-31T16:44:19.080Z,5.72
2022-10-31T16:46:46.294Z,4.97
2022-10-31T16:49:13.604Z,2.67
2022-10-31T16:51:40.788Z,4.00
2022-10-31T16:54:10.837Z,1.80
2022-10-31T16:56:38.889Z,2.58
2022-10-31T16:59:12.058Z,2.17
2022-10-31T17:01:43.421Z,0.77
2022-10-31T17:04:14.459Z,2.85
2022-10-31T17:06:42.003Z,1.88
2022-10-31T17:09:09.846Z,2.15
2022-10-31T17:11:37.215Z,1.77
2022-10-31T17:14:05.264Z,0.85
2022-10-31T17:16:32.702Z,0.95
2022-10-31T17:19:00.496Z,0.88
2022-10-31T17:21:28.276Z,1.00
2022-10-31T17:23:55.537Z,1.40
2022-10-31T17:26:23.280Z,1.10
2022-10-31T17:28:50.607Z,1.92
2022-10-31T17:31:25.031Z,2.00
2022-10-31T17:33:52.382Z,1.55
2022-10-31T17:36:19.664Z,1.25
2022-10-31T17:38:46.955Z,2.28
2022-10-31T17:41:14.195Z,0.80
2022-10-31T17:43:41.797Z,0.90
2022-10-31T17:46:09.142Z,2.70
2022-10-31T17:48:37.222Z,2.25
2022-10-31T17:51:05.182Z,3.40
2022-10-31T17:53:33.788Z,3.05
2022-10-31T17:56:02.005Z,3.25
2022-10-31T17:58:29.433Z,1.90
2022-10-31T18:00:56.855Z,2.50
2022-10-31T18:03:24.400Z,1.30
2022-10-31T18:05:59.728Z,1.70
2022-10-31T18:08:31.352Z,1.05
2022-10-31T18:11:01.725Z,1.02
2022-10-31T18:13:29.441Z,1.33
2022-10-31T18:15:56.614Z,1.40
2022-10-31T18:18:23.944Z,1.13
2022-10-31T18:20:51.232Z,1.25
2022-10-31T18:23:19.328Z,0.75
2022-10-31T18:25:46.579Z,2.13
2022-10-31T18:28:13.890Z,1.30
2022-10-31T18:30:41.619Z,1.00
2022-10-31T18:33:09.386Z,1.10
2022-10-31T18:35:38.081Z,1.83
2022-10-31T18:38:06.208Z,0.90
2022-10-31T18:40:35.638Z,0.90
2022-10-31T18:43:03.235Z,1.23
2022-10-31T18:45:41.567Z,1.42
2022-10-31T18:48:14.466Z,2.83
2022-10-31T18:50:44.040Z,2.53
2022-10-31T18:53:11.375Z,1.98
2022-10-31T18:55:45.495Z,1.30
2022-10-31T18:58:16.813Z,2.78
2022-10-31T19:00:44.902Z,2.55
2022-10-31T19:03:12.307Z,1.60
2022-10-31T19:05:39.558Z,1.30
2022-10-31T19:08:06.775Z,1.88
2022-10-31T19:10:36.108Z,1.20
2022-10-31T19:13:03.593Z,1.55
2022-10-31T19:15:31.279Z,1.33
2022-10-31T19:17:58.517Z,3.17
2022-10-31T19:20:25.749Z,4.07
2022-10-31T19:22:53.153Z,2.45
2022-10-31T19:25:20.630Z,2.50
2022-10-31T19:27:47.843Z,2.00
2022-10-31T19:30:15.358Z,2.70
2022-10-31T19:32:42.600Z,1.90
2022-10-31T19:35:11.089Z,2.63
2022-10-31T19:37:39.706Z,2.10
2022-10-31T19:40:08.350Z,1.88
2022-10-31T19:42:36.293Z,1.05
2022-10-31T19:45:03.912Z,1.25
2022-10-31T19:47:31.245Z,1.58
2022-10-31T19:49:58.571Z,0.90
2022-10-31T19:52:25.849Z,1.40
2022-10-31T19:54:53.252Z,1.00
2022-10-31T19:57:30.762Z,1.15
2022-10-31T20:00:08.742Z,1.13
2022-10-31T20:02:36.005Z,0.82
2022-10-31T20:05:03.233Z,1.38
2022-10-31T20:07:30.696Z,1.08
2022-10-31T20:09:59.100Z,0.98
2022-10-31T20:12:26.342Z,1.60
2022-10-31T20:14:53.542Z,0.85
2022-10-31T20:17:20.773Z,0.88
2022-10-31T20:19:48.219Z,1.77
2022-10-31T20:22:15.627Z,2.80
2022-10-31T20:24:42.975Z,1.90
2022-10-31T20:27:10.348Z,2.55
2022-10-31T20:29:37.663Z,0.82
2022-10-31T20:32:04.968Z,0.98
2022-10-31T20:34:32.441Z,1.15
2022-10-31T20:36:59.688Z,1.30
2022-10-31T20:39:26.940Z,1.10
2022-10-31T20:41:54.189Z,2.58
2022-10-31T20:44:21.985Z,0.80
2022-10-31T20:46:49.224Z,0.90
2022-10-31T20:49:16.464Z,0.80
2022-10-31T20:51:43.737Z,1.10
2022-10-31T20:54:12.636Z,1.52
2022-10-31T20:56:39.894Z,2.45
2022-10-31T20:59:10.147Z,1.58
2022-10-31T21:01:38.585Z,1.88
2022-10-31T21:04:08.707Z,1.02
2022-10-31T21:06:36.107Z,1.10
2022-10-31T21:09:03.489Z,0.88
2022-10-31T21:11:30.899Z,1.10
2022-10-31T21:13:59.880Z,1.10
2022-10-31T21:16:29.238Z,2.47
2022-10-31T21:18:56.663Z,1.42
2022-10-31T21:21:29.102Z,1.73
2022-10-31T21:24:00.566Z,1.33
2022-10-31T21:26:30.074Z,2.13
2022-10-31T21:28:58.450Z,1.83
2022-10-31T21:31:26.113Z,1.98
2022-10-31T21:33:53.378Z,1.25
2022-10-31T21:36:20.821Z,2.42
2022-10-31T21:38:51.477Z,2.05
2022-10-31T21:41:19.296Z,1.13
2022-10-31T21:43:47.324Z,1.42
2022-10-31T21:46:18.764Z,1.70
2022-10-31T21:48:46.624Z,1.00
2022-10-31T21:51:15.657Z,1.20
2022-10-31T21:54:01.910Z,1.08
2022-10-31T21:56:29.237Z,1.42
2022-10-31T21:58:57.031Z,1.10
2022-10-31T22:01:25.628Z,1.48
2022-10-31T22:03:53.557Z,1.95
2022-10-31T22:06:20.881Z,1.10
2022-10-31T22:08:48.457Z,1.17
2022-10-31T22:11:17.002Z,1.70
2022-10-31T22:13:45.098Z,1.00
2022-10-31T22:16:13.494Z,1.08
2022-10-31T22:18:40.934Z,0.82
2022-10-31T22:21:12.484Z,1.20
2022-10-31T22:23:39.998Z,2.35
2022-10-31T22:26:09.099Z,1.95
2022-10-31T22:28:36.684Z,1.52
2022-10-31T22:31:05.375Z,1.25
2022-10-31T22:33:32.701Z,1.63
2022-10-31T22:36:04.032Z,0.90
2022-10-31T22:38:31.840Z,1.05
2022-10-31T22:40:59.460Z,0.80
2022-10-31T22:43:26.709Z,1.13
2022-10-31T22:46:03.664Z,1.33
2022-10-31T22:48:32.009Z,0.63
2022-10-31T22:51:09.725Z,1.23
2022-10-31T22:53:37.680Z,1.75
2022-10-31T22:56:05.881Z,0.68
2022-10-31T22:58:33.683Z,0.65
2022-10-31T23:01:01.807Z,1.17
2022-10-31T23:03:29.110Z,0.73
2022-10-31T23:05:57.204Z,0.50
2022-10-31T23:08:24.857Z,0.60
2022-10-31T23:10:52.376Z,0.60
2022-10-31T23:13:38.581Z,0.50
2022-10-31T23:16:06.736Z,2.10
2022-10-31T23:18:49.736Z,0.60
2022-10-31T23:21:43.887Z,0.80
2022-10-31T23:24:12.215Z,0.68
2022-10-31T23:26:58.627Z,0.60
2022-10-31T23:29:25.895Z,0.73
2022-10-31T23:31:55.951Z,2.65
2022-10-31T23:34:23.482Z,1.40
2022-10-31T23:36:50.760Z,0.98
2022-10-31T23:39:21.233Z,1.10
2022-10-31T23:41:51.698Z,1.52
2022-10-31T23:44:18.928Z,1.40
2022-10-31T23:46:46.187Z,1.38
2022-10-31T23:49:13.412Z,2.30
2022-10-31T23:51:40.657Z,1.30
2022-10-31T23:54:08.234Z,1.60
2022-10-31T23:56:35.599Z,1.33
2022-10-31T23:59:02.935Z,1.45
